sensor_id;sensor_type;location;lat;lon;timestamp;P1;durP1;ratioP1;P2;durP2;ratioP2
12145;SDS011;6136;47.032;15.398;2024-01-10T00:01:36;11.47;;;6.03;;
12145;SDS011;6136;47.032;15.398;2024-01-10T00:04:04;8.70;;;5.63;;
12145;SDS011;6136;47.032;15.398;2024-01-10T00:06:32;8.33;;;5.77;;
12145;SDS011;6136;47.032;15.398;2024-01-10T00:09:00;10.10;;;6.23;;
12145;SDS011;6136;47.032;15.398;2024-01-10T00:11:29;9.30;;;6.50;;
12145;SDS011;6136;47.032;15.398;2024-01-10T00:14:00;11.20;;;6.77;;
12145;SDS011;6136;47.032;15.398;2024-01-10T00:16:30;13.67;;;6.10;;
12145;SDS011;6136;47.032;15.398;2024-01-10T00:18:59;11.23;;;6.23;;
12145;SDS011;6136;47.032;15.398;2024-01-10T00:21:27;11.07;;;5.57;;
12145;SDS011;6136;47.032;15.398;2024-01-10T00:23:56;10.80;;;5.73;;
12145;SDS011;6136;47.032;15.398;2024-01-10T00:26:24;9.40;;;6.03;;
12145;SDS011;6136;47.032;15.398;2024-01-10T00:28:52;11.17;;;5.97;;
12145;SDS011;6136;47.032;15.398;2024-01-10T00:31:29;7.87;;;5.70;;
12145;SDS011;6136;47.032;15.398;2024-01-10T00:33:57;10.77;;;5.97;;
12145;SDS011;6136;47.032;15.398;2024-01-10T00:36:27;11.13;;;6.27;;
12145;SDS011;6136;47.032;15.398;2024-01-10T00:38:55;10.23;;;6.20;;
12145;SDS011;6136;47.032;15.398;2024-01-10T00:41:23;11.03;;;6.57;;
12145;SDS011;6136;47.032;15.398;2024-01-10T00:43:51;14.23;;;6.07;;
12145;SDS011;6136;47.032;15.398;2024-01-10T00:46:19;11.03;;;6.03;;
12145;SDS011;6136;47.032;15.398;2024-01-10T00:48:47;9.63;;;5.93;;
12145;SDS011;6136;47.032;15.398;2024-01-10T00:51:15;11.07;;;6.13;;
12145;SDS011;6136;47.032;15.398;2024-01-10T00:53:46;11.00;;;6.00;;
12145;SDS011;6136;47.032;15.398;2024-01-10T00:56:15;11.60;;;6.67;;
12145;SDS011;6136;47.032;15.398;2024-01-10T00:58:45;9.50;;;5.93;;
12145;SDS011;6136;47.032;15.398;2024-01-10T01:01:15;9.23;;;5.53;;
12145;SDS011;6136;47.032;15.398;2024-01-10T01:03:44;9.53;;;6.10;;
12145;SDS011;6136;47.032;15.398;2024-01-10T01:06:13;9.47;;;6.20;;
12145;SDS011;6136;47.032;15.398;2024-01-10T01:08:43;10.67;;;6.40;;
12145;SDS011;6136;47.032;15.398;2024-01-10T01:11:13;6.57;;;5.03;;
12145;SDS011;6136;47.032;15.398;2024-01-10T01:13:43;11.57;;;6.27;;
12145;SDS011;6136;47.032;15.398;2024-01-10T01:16:12;8.13;;;5.13;;
12145;SDS011;6136;47.032;15.398;2024-01-10T01:18:41;9.43;;;6.37;;
12145;SDS011;6136;47.032;15.398;2024-01-10T01:21:12;11.13;;;5.97;;
12145;SDS011;6136;47.032;15.398;2024-01-10T01:23:42;8.00;;;5.20;;
12145;SDS011;6136;47.032;15.398;2024-01-10T01:26:12;14.37;;;6.50;;
12145;SDS011;6136;47.032;15.398;2024-01-10T01:28:41;10.53;;;6.33;;
12145;SDS011;6136;47.032;15.398;2024-01-10T01:31:09;9.37;;;5.80;;
12145;SDS011;6136;47.032;15.398;2024-01-10T01:33:37;12.03;;;6.27;;
12145;SDS011;6136;47.032;15.398;2024-01-10T01:36:06;12.03;;;6.27;;
12145;SDS011;6136;47.032;15.398;2024-01-10T01:38:35;10.73;;;6.53;;
12145;SDS011;6136;47.032;15.398;2024-01-10T01:41:04;10.40;;;5.80;;
12145;SDS011;6136;47.032;15.398;2024-01-10T01:43:38;10.17;;;6.20;;
12145;SDS011;6136;47.032;15.398;2024-01-10T01:46:08;10.90;;;6.13;;
12145;SDS011;6136;47.032;15.398;2024-01-10T01:48:37;11.00;;;6.17;;
12145;SDS011;6136;47.032;15.398;2024-01-10T01:51:07;9.23;;;5.47;;
12145;SDS011;6136;47.032;15.398;2024-01-10T01:53:36;8.10;;;5.73;;
12145;SDS011;6136;47.032;15.398;2024-01-10T01:56:06;8.73;;;6.27;;
12145;SDS011;6136;47.032;15.398;2024-01-10T01:58:36;11.97;;;5.93;;
12145;SDS011;6136;47.032;15.398;2024-01-10T02:01:06;10.20;;;6.33;;
12145;SDS011;6136;47.032;15.398;2024-01-10T02:03:34;10.00;;;5.93;;
12145;SDS011;6136;47.032;15.398;2024-01-10T02:06:02;11.80;;;6.40;;
12145;SDS011;6136;47.032;15.398;2024-01-10T02:08:31;8.63;;;6.13;;
12145;SDS011;6136;47.032;15.398;2024-01-10T02:10:59;9.07;;;5.87;;
12145;SDS011;6136;47.032;15.398;2024-01-10T02:13:28;10.10;;;5.43;;
12145;SDS011;6136;47.032;15.398;2024-01-10T02:15:56;10.53;;;6.10;;
12145;SDS011;6136;47.032;15.398;2024-01-10T02:18:26;9.77;;;6.33;;
12145;SDS011;6136;47.032;15.398;2024-01-10T02:20:54;12.63;;;6.73;;
12145;SDS011;6136;47.032;15.398;2024-01-10T02:23:22;10.27;;;6.07;;
12145;SDS011;6136;47.032;15.398;2024-01-10T02:25:51;10.60;;;6.27;;
12145;SDS011;6136;47.032;15.398;2024-01-10T02:28:19;10.80;;;5.87;;
12145;SDS011;6136;47.032;15.398;2024-01-10T02:30:49;9.10;;;5.20;;
12145;SDS011;6136;47.032;15.398;2024-01-10T02:33:18;10.07;;;6.33;;
12145;SDS011;6136;47.032;15.398;2024-01-10T02:35:46;8.20;;;5.57;;
12145;SDS011;6136;47.032;15.398;2024-01-10T02:38:14;12.10;;;6.57;;
12145;SDS011;6136;47.032;15.398;2024-01-10T02:40:42;7.97;;;6.30;;
12145;SDS011;6136;47.032;15.398;2024-01-10T02:43:12;9.73;;;6.30;;
12145;SDS011;6136;47.032;15.398;2024-01-10T02:45:40;9.53;;;6.57;;
12145;SDS011;6136;47.032;15.398;2024-01-10T02:48:08;11.60;;;6.27;;
12145;SDS011;6136;47.032;15.398;2024-01-10T02:50:36;12.17;;;6.20;;
12145;SDS011;6136;47.032;15.398;2024-01-10T02:53:05;9.13;;;6.03;;
12145;SDS011;6136;47.032;15.398;2024-01-10T02:55:33;9.00;;;5.87;;
12145;SDS011;6136;47.032;15.398;2024-01-10T02:58:01;12.83;;;6.30;;
12145;SDS011;6136;47.032;15.398;2024-01-10T03:00:30;12.07;;;6.70;;
12145;SDS011;6136;47.032;15.398;2024-01-10T03:02:58;9.47;;;6.23;;
12145;SDS011;6136;47.032;15.398;2024-01-10T03:05:27;9.50;;;5.83;;
12145;SDS011;6136;47.032;15.398;2024-01-10T03:07:55;9.37;;;6.50;;
12145;SDS011;6136;47.032;15.398;2024-01-10T03:10:23;9.57;;;6.27;;
12145;SDS011;6136;47.032;15.398;2024-01-10T03:12:51;12.13;;;6.90;;
12145;SDS011;6136;47.032;15.398;2024-01-10T03:15:19;13.47;;;6.13;;
12145;SDS011;6136;47.032;15.398;2024-01-10T03:17:48;12.87;;;7.53;;
12145;SDS011;6136;47.032;15.398;2024-01-10T03:20:16;10.90;;;6.80;;
12145;SDS011;6136;47.032;15.398;2024-01-10T03:22:44;10.43;;;6.93;;
12145;SDS011;6136;47.032;15.398;2024-01-10T03:25:13;15.30;;;7.90;;
12145;SDS011;6136;47.032;15.398;2024-01-10T03:27:41;10.70;;;6.50;;
12145;SDS011;6136;47.032;15.398;2024-01-10T03:30:09;15.70;;;7.87;;
12145;SDS011;6136;47.032;15.398;2024-01-10T03:32:38;10.57;;;7.27;;
12145;SDS011;6136;47.032;15.398;2024-01-10T03:35:08;11.30;;;6.90;;
12145;SDS011;6136;47.032;15.398;2024-01-10T03:37:36;11.20;;;6.30;;
12145;SDS011;6136;47.032;15.398;2024-01-10T03:40:05;12.13;;;7.30;;
12145;SDS011;6136;47.032;15.398;2024-01-10T03:42:33;12.00;;;7.33;;
12145;SDS011;6136;47.032;15.398;2024-01-10T03:45:01;13.13;;;7.50;;
12145;SDS011;6136;47.032;15.398;2024-01-10T03:47:30;11.37;;;7.07;;
12145;SDS011;6136;47.032;15.398;2024-01-10T03:49:58;10.10;;;6.67;;
12145;SDS011;6136;47.032;15.398;2024-01-10T03:52:27;10.67;;;7.27;;
12145;SDS011;6136;47.032;15.398;2024-01-10T03:54:55;12.70;;;7.10;;
12145;SDS011;6136;47.032;15.398;2024-01-10T03:57:24;13.60;;;7.93;;
12145;SDS011;6136;47.032;15.398;2024-01-10T03:59:52;13.53;;;7.23;;
12145;SDS011;6136;47.032;15.398;2024-01-10T04:02:20;11.47;;;6.93;;
12145;SDS011;6136;47.032;15.398;2024-01-10T04:04:49;10.47;;;7.10;;
12145;SDS011;6136;47.032;15.398;2024-01-10T04:07:16;11.97;;;8.13;;
12145;SDS011;6136;47.032;15.398;2024-01-10T04:09:46;15.77;;;7.77;;
12145;SDS011;6136;47.032;15.398;2024-01-10T04:12:14;13.77;;;7.77;;
12145;SDS011;6136;47.032;15.398;2024-01-10T04:14:42;11.70;;;7.33;;
12145;SDS011;6136;47.032;15.398;2024-01-10T04:17:10;12.77;;;7.10;;
12145;SDS011;6136;47.032;15.398;2024-01-10T04:19:38;10.13;;;7.13;;
12145;SDS011;6136;47.032;15.398;2024-01-10T04:22:06;11.97;;;7.23;;
12145;SDS011;6136;47.032;15.398;2024-01-10T04:24:34;13.83;;;7.60;;
12145;SDS011;6136;47.032;15.398;2024-01-10T04:27:03;10.50;;;6.60;;
12145;SDS011;6136;47.032;15.398;2024-01-10T04:29:35;13.47;;;7.20;;
12145;SDS011;6136;47.032;15.398;2024-01-10T04:32:03;12.40;;;7.80;;
12145;SDS011;6136;47.032;15.398;2024-01-10T04:34:32;12.43;;;8.00;;
12145;SDS011;6136;47.032;15.398;2024-01-10T04:36:59;11.57;;;7.63;;
12145;SDS011;6136;47.032;15.398;2024-01-10T04:39:28;9.90;;;6.60;;
12145;SDS011;6136;47.032;15.398;2024-01-10T04:41:56;12.33;;;7.57;;
12145;SDS011;6136;47.032;15.398;2024-01-10T04:44:25;13.00;;;7.80;;
12145;SDS011;6136;47.032;15.398;2024-01-10T04:46:53;12.23;;;7.83;;
12145;SDS011;6136;47.032;15.398;2024-01-10T04:49:21;13.57;;;8.50;;
12145;SDS011;6136;47.032;15.398;2024-01-10T04:51:49;11.97;;;8.00;;
12145;SDS011;6136;47.032;15.398;2024-01-10T04:54:18;11.90;;;7.97;;
12145;SDS011;6136;47.032;15.398;2024-01-10T04:56:46;14.27;;;7.63;;
12145;SDS011;6136;47.032;15.398;2024-01-10T04:59:14;13.17;;;7.97;;
12145;SDS011;6136;47.032;15.398;2024-01-10T05:01:43;11.13;;;7.77;;
12145;SDS011;6136;47.032;15.398;2024-01-10T05:04:11;14.73;;;7.97;;
12145;SDS011;6136;47.032;15.398;2024-01-10T05:06:39;14.80;;;8.90;;
12145;SDS011;6136;47.032;15.398;2024-01-10T05:09:07;13.53;;;9.23;;
12145;SDS011;6136;47.032;15.398;2024-01-10T05:11:36;17.60;;;9.70;;
12145;SDS011;6136;47.032;15.398;2024-01-10T05:14:07;15.77;;;9.70;;
12145;SDS011;6136;47.032;15.398;2024-01-10T05:16:35;13.47;;;8.63;;
12145;SDS011;6136;47.032;15.398;2024-01-10T05:19:04;13.93;;;9.20;;
12145;SDS011;6136;47.032;15.398;2024-01-10T05:21:32;13.07;;;9.23;;
12145;SDS011;6136;47.032;15.398;2024-01-10T05:24:01;15.57;;;9.37;;
12145;SDS011;6136;47.032;15.398;2024-01-10T05:26:29;14.80;;;9.23;;
12145;SDS011;6136;47.032;15.398;2024-01-10T05:28:57;14.63;;;8.73;;
12145;SDS011;6136;47.032;15.398;2024-01-10T05:31:26;12.00;;;8.10;;
12145;SDS011;6136;47.032;15.398;2024-01-10T05:33:53;22.37;;;10.17;;
12145;SDS011;6136;47.032;15.398;2024-01-10T05:36:23;16.93;;;9.97;;
12145;SDS011;6136;47.032;15.398;2024-01-10T05:38:51;16.17;;;9.13;;
12145;SDS011;6136;47.032;15.398;2024-01-10T05:41:19;16.13;;;9.00;;
12145;SDS011;6136;47.032;15.398;2024-01-10T05:43:48;14.13;;;8.87;;
12145;SDS011;6136;47.032;15.398;2024-01-10T05:46:18;17.93;;;9.20;;
12145;SDS011;6136;47.032;15.398;2024-01-10T05:48:49;19.33;;;10.23;;
12145;SDS011;6136;47.032;15.398;2024-01-10T05:51:19;17.43;;;9.50;;
12145;SDS011;6136;47.032;15.398;2024-01-10T05:53:49;15.77;;;9.67;;
12145;SDS011;6136;47.032;15.398;2024-01-10T05:56:17;21.37;;;10.17;;
12145;SDS011;6136;47.032;15.398;2024-01-10T05:58:45;20.23;;;10.17;;
12145;SDS011;6136;47.032;15.398;2024-01-10T06:01:13;20.20;;;10.77;;
12145;SDS011;6136;47.032;15.398;2024-01-10T06:03:41;19.53;;;11.40;;
12145;SDS011;6136;47.032;15.398;2024-01-10T06:06:09;20.23;;;10.70;;
12145;SDS011;6136;47.032;15.398;2024-01-10T06:08:37;21.63;;;13.53;;
12145;SDS011;6136;47.032;15.398;2024-01-10T06:11:07;23.13;;;13.43;;
12145;SDS011;6136;47.032;15.398;2024-01-10T06:13:36;26.57;;;13.27;;
12145;SDS011;6136;47.032;15.398;2024-01-10T06:16:19;23.63;;;13.13;;
12145;SDS011;6136;47.032;15.398;2024-01-10T06:18:47;26.80;;;12.60;;
12145;SDS011;6136;47.032;15.398;2024-01-10T06:21:15;24.83;;;12.67;;
12145;SDS011;6136;47.032;15.398;2024-01-10T06:23:43;19.93;;;12.93;;
12145;SDS011;6136;47.032;15.398;2024-01-10T06:26:13;21.17;;;11.83;;
12145;SDS011;6136;47.032;15.398;2024-01-10T06:28:41;22.47;;;11.63;;
12145;SDS011;6136;47.032;15.398;2024-01-10T06:31:09;18.97;;;11.57;;
12145;SDS011;6136;47.032;15.398;2024-01-10T06:33:38;23.10;;;11.47;;
12145;SDS011;6136;47.032;15.398;2024-01-10T06:36:06;19.77;;;11.50;;
12145;SDS011;6136;47.032;15.398;2024-01-10T06:38:35;17.87;;;10.53;;
12145;SDS011;6136;47.032;15.398;2024-01-10T06:41:06;16.50;;;10.30;;
12145;SDS011;6136;47.032;15.398;2024-01-10T06:43:36;17.37;;;10.43;;
12145;SDS011;6136;47.032;15.398;2024-01-10T06:46:05;18.20;;;10.37;;
12145;SDS011;6136;47.032;15.398;2024-01-10T06:48:33;16.77;;;9.83;;
12145;SDS011;6136;47.032;15.398;2024-01-10T06:51:03;20.13;;;10.73;;
12145;SDS011;6136;47.032;15.398;2024-01-10T06:53:31;22.63;;;11.63;;
12145;SDS011;6136;47.032;15.398;2024-01-10T06:55:59;15.43;;;9.43;;
12145;SDS011;6136;47.032;15.398;2024-01-10T06:58:27;19.17;;;10.70;;
12145;SDS011;6136;47.032;15.398;2024-01-10T07:00:56;18.47;;;10.93;;
12145;SDS011;6136;47.032;15.398;2024-01-10T07:03:24;14.70;;;9.73;;
12145;SDS011;6136;47.032;15.398;2024-01-10T07:05:52;17.97;;;10.47;;
12145;SDS011;6136;47.032;15.398;2024-01-10T07:08:20;17.60;;;9.90;;
12145;SDS011;6136;47.032;15.398;2024-01-10T07:10:49;14.43;;;9.50;;
12145;SDS011;6136;47.032;15.398;2024-01-10T07:13:17;18.03;;;11.10;;
12145;SDS011;6136;47.032;15.398;2024-01-10T07:15:45;21.53;;;10.37;;
12145;SDS011;6136;47.032;15.398;2024-01-10T07:18:14;18.87;;;11.27;;
12145;SDS011;6136;47.032;15.398;2024-01-10T07:20:43;14.90;;;9.60;;
12145;SDS011;6136;47.032;15.398;2024-01-10T07:23:11;18.33;;;9.50;;
12145;SDS011;6136;47.032;15.398;2024-01-10T07:25:39;18.37;;;9.90;;
12145;SDS011;6136;47.032;15.398;2024-01-10T07:28:07;15.43;;;9.50;;
12145;SDS011;6136;47.032;15.398;2024-01-10T07:30:35;14.87;;;9.97;;
12145;SDS011;6136;47.032;15.398;2024-01-10T07:33:03;14.30;;;8.80;;
12145;SDS011;6136;47.032;15.398;2024-01-10T07:35:33;16.83;;;9.43;;
12145;SDS011;6136;47.032;15.398;2024-01-10T07:38:01;16.73;;;9.10;;
12145;SDS011;6136;47.032;15.398;2024-01-10T07:40:29;15.00;;;8.23;;
12145;SDS011;6136;47.032;15.398;2024-01-10T07:42:57;13.93;;;8.30;;
12145;SDS011;6136;47.032;15.398;2024-01-10T07:45:25;14.30;;;8.27;;
12145;SDS011;6136;47.032;15.398;2024-01-10T07:47:54;13.17;;;8.30;;
12145;SDS011;6136;47.032;15.398;2024-01-10T07:50:22;13.77;;;8.13;;
12145;SDS011;6136;47.032;15.398;2024-01-10T07:52:55;13.07;;;8.10;;
12145;SDS011;6136;47.032;15.398;2024-01-10T07:55:23;12.50;;;8.00;;
12145;SDS011;6136;47.032;15.398;2024-01-10T07:57:51;20.50;;;8.63;;
12145;SDS011;6136;47.032;15.398;2024-01-10T08:00:19;13.53;;;8.30;;
12145;SDS011;6136;47.032;15.398;2024-01-10T08:02:48;14.40;;;8.73;;
12145;SDS011;6136;47.032;15.398;2024-01-10T08:05:16;16.57;;;9.30;;
12145;SDS011;6136;47.032;15.398;2024-01-10T08:07:45;15.47;;;8.20;;
12145;SDS011;6136;47.032;15.398;2024-01-10T08:10:14;17.20;;;9.43;;
12145;SDS011;6136;47.032;15.398;2024-01-10T08:12:42;20.50;;;11.10;;
12145;SDS011;6136;47.032;15.398;2024-01-10T08:15:11;17.27;;;9.20;;
12145;SDS011;6136;47.032;15.398;2024-01-10T08:17:39;19.17;;;9.40;;
12145;SDS011;6136;47.032;15.398;2024-01-10T08:20:07;14.07;;;9.20;;
12145;SDS011;6136;47.032;15.398;2024-01-10T08:22:38;15.87;;;9.40;;
12145;SDS011;6136;47.032;15.398;2024-01-10T08:25:07;15.63;;;9.23;;
12145;SDS011;6136;47.032;15.398;2024-01-10T08:27:37;19.57;;;9.87;;
12145;SDS011;6136;47.032;15.398;2024-01-10T08:30:08;19.23;;;9.37;;
12145;SDS011;6136;47.032;15.398;2024-01-10T08:32:37;14.73;;;8.67;;
12145;SDS011;6136;47.032;15.398;2024-01-10T08:35:05;14.47;;;9.03;;
12145;SDS011;6136;47.032;15.398;2024-01-10T08:37:36;15.20;;;9.20;;
12145;SDS011;6136;47.032;15.398;2024-01-10T08:40:05;15.10;;;8.20;;
12145;SDS011;6136;47.032;15.398;2024-01-10T08:42:38;13.10;;;8.80;;
12145;SDS011;6136;47.032;15.398;2024-01-10T08:45:08;21.50;;;8.87;;
12145;SDS011;6136;47.032;15.398;2024-01-10T08:47:38;15.13;;;8.23;;
12145;SDS011;6136;47.032;15.398;2024-01-10T08:50:06;11.87;;;7.40;;
12145;SDS011;6136;47.032;15.398;2024-01-10T08:52:36;13.00;;;8.13;;
12145;SDS011;6136;47.032;15.398;2024-01-10T08:55:05;14.53;;;8.50;;
12145;SDS011;6136;47.032;15.398;2024-01-10T08:57:40;10.60;;;7.40;;
12145;SDS011;6136;47.032;15.398;2024-01-10T09:00:09;16.33;;;9.40;;
12145;SDS011;6136;47.032;15.398;2024-01-10T09:02:39;14.10;;;7.97;;
12145;SDS011;6136;47.032;15.398;2024-01-10T09:05:07;12.87;;;7.80;;
12145;SDS011;6136;47.032;15.398;2024-01-10T09:07:37;14.47;;;8.03;;
12145;SDS011;6136;47.032;15.398;2024-01-10T09:10:06;14.60;;;7.47;;
12145;SDS011;6136;47.032;15.398;2024-01-10T09:12:35;14.33;;;8.17;;
12145;SDS011;6136;47.032;15.398;2024-01-10T09:15:05;12.53;;;7.97;;
12145;SDS011;6136;47.032;15.398;2024-01-10T09:17:34;18.00;;;8.47;;
12145;SDS011;6136;47.032;15.398;2024-01-10T09:20:03;15.77;;;8.07;;
12145;SDS011;6136;47.032;15.398;2024-01-10T09:22:31;13.80;;;7.83;;
12145;SDS011;6136;47.032;15.398;2024-01-10T09:24:59;16.13;;;8.13;;
12145;SDS011;6136;47.032;15.398;2024-01-10T09:27:30;12.83;;;7.60;;
12145;SDS011;6136;47.032;15.398;2024-01-10T09:29:58;14.27;;;8.23;;
12145;SDS011;6136;47.032;15.398;2024-01-10T09:32:29;9.73;;;7.27;;
12145;SDS011;6136;47.032;15.398;2024-01-10T09:34:58;11.23;;;7.53;;
12145;SDS011;6136;47.032;15.398;2024-01-10T09:37:27;15.13;;;8.13;;
12145;SDS011;6136;47.032;15.398;2024-01-10T09:39:55;16.33;;;9.00;;
12145;SDS011;6136;47.032;15.398;2024-01-10T09:42:23;18.77;;;8.97;;
12145;SDS011;6136;47.032;15.398;2024-01-10T09:44:52;14.47;;;9.13;;
12145;SDS011;6136;47.032;15.398;2024-01-10T09:47:20;22.43;;;8.80;;
12145;SDS011;6136;47.032;15.398;2024-01-10T09:49:50;18.80;;;8.67;;
12145;SDS011;6136;47.032;15.398;2024-01-10T09:52:22;12.23;;;8.00;;
12145;SDS011;6136;47.032;15.398;2024-01-10T09:54:51;15.47;;;8.80;;
12145;SDS011;6136;47.032;15.398;2024-01-10T09:57:21;23.30;;;8.93;;
12145;SDS011;6136;47.032;15.398;2024-01-10T09:59:50;25.47;;;9.47;;
12145;SDS011;6136;47.032;15.398;2024-01-10T10:02:19;16.23;;;9.03;;
12145;SDS011;6136;47.032;15.398;2024-01-10T10:04:52;19.93;;;9.97;;
12145;SDS011;6136;47.032;15.398;2024-01-10T10:07:23;14.50;;;9.77;;
12145;SDS011;6136;47.032;15.398;2024-01-10T10:09:52;17.50;;;9.17;;
12145;SDS011;6136;47.032;15.398;2024-01-10T10:12:28;20.93;;;9.70;;
12145;SDS011;6136;47.032;15.398;2024-01-10T10:15:10;15.47;;;8.90;;
12145;SDS011;6136;47.032;15.398;2024-01-10T10:17:38;15.17;;;9.33;;
12145;SDS011;6136;47.032;15.398;2024-01-10T10:20:15;15.40;;;9.40;;
12145;SDS011;6136;47.032;15.398;2024-01-10T10:23:00;18.47;;;9.53;;
12145;SDS011;6136;47.032;15.398;2024-01-10T10:25:29;16.10;;;9.40;;
12145;SDS011;6136;47.032;15.398;2024-01-10T10:27:59;20.03;;;9.77;;
12145;SDS011;6136;47.032;15.398;2024-01-10T10:30:27;16.20;;;9.53;;
12145;SDS011;6136;47.032;15.398;2024-01-10T10:32:55;14.93;;;8.57;;
12145;SDS011;6136;47.032;15.398;2024-01-10T10:35:25;17.90;;;8.37;;
12145;SDS011;6136;47.032;15.398;2024-01-10T10:38:07;19.07;;;9.90;;
12145;SDS011;6136;47.032;15.398;2024-01-10T10:40:36;15.40;;;9.07;;
12145;SDS011;6136;47.032;15.398;2024-01-10T10:43:04;16.13;;;9.20;;
12145;SDS011;6136;47.032;15.398;2024-01-10T10:45:32;18.00;;;9.23;;
12145;SDS011;6136;47.032;15.398;2024-01-10T10:48:01;14.47;;;8.63;;
12145;SDS011;6136;47.032;15.398;2024-01-10T10:50:32;13.90;;;9.30;;
12145;SDS011;6136;47.032;15.398;2024-01-10T10:53:02;13.73;;;8.50;;
12145;SDS011;6136;47.032;15.398;2024-01-10T10:55:31;15.63;;;9.23;;
12145;SDS011;6136;47.032;15.398;2024-01-10T10:58:01;13.57;;;8.20;;
12145;SDS011;6136;47.032;15.398;2024-01-10T11:00:36;12.37;;;8.23;;
12145;SDS011;6136;47.032;15.398;2024-01-10T11:03:06;15.33;;;9.13;;
12145;SDS011;6136;47.032;15.398;2024-01-10T11:05:36;16.03;;;8.80;;
12145;SDS011;6136;47.032;15.398;2024-01-10T11:08:08;13.50;;;8.03;;
12145;SDS011;6136;47.032;15.398;2024-01-10T11:10:39;13.87;;;8.93;;
12145;SDS011;6136;47.032;15.398;2024-01-10T11:13:13;19.17;;;9.27;;
12145;SDS011;6136;47.032;15.398;2024-01-10T11:15:54;15.57;;;8.87;;
12145;SDS011;6136;47.032;15.398;2024-01-10T11:18:29;16.83;;;8.77;;
12145;SDS011;6136;47.032;15.398;2024-01-10T11:21:06;14.03;;;8.30;;
12145;SDS011;6136;47.032;15.398;2024-01-10T11:23:39;16.90;;;9.33;;
12145;SDS011;6136;47.032;15.398;2024-01-10T11:26:08;15.33;;;8.40;;
12145;SDS011;6136;47.032;15.398;2024-01-10T11:28:37;18.10;;;8.27;;
12145;SDS011;6136;47.032;15.398;2024-01-10T11:31:06;12.40;;;8.63;;
12145;SDS011;6136;47.032;15.398;2024-01-10T11:33:35;13.53;;;8.60;;
12145;SDS011;6136;47.032;15.398;2024-01-10T11:36:12;12.07;;;7.73;;
12145;SDS011;6136;47.032;15.398;2024-01-10T11:38:41;15.97;;;8.50;;
12145;SDS011;6136;47.032;15.398;2024-01-10T11:41:10;15.07;;;8.10;;
12145;SDS011;6136;47.032;15.398;2024-01-10T11:43:38;15.70;;;8.30;;
12145;SDS011;6136;47.032;15.398;2024-01-10T11:46:06;13.00;;;8.30;;
12145;SDS011;6136;47.032;15.398;2024-01-10T11:48:36;18.67;;;8.47;;
12145;SDS011;6136;47.032;15.398;2024-01-10T11:51:06;14.10;;;7.60;;
12145;SDS011;6136;47.032;15.398;2024-01-10T11:53:40;12.40;;;7.63;;
12145;SDS011;6136;47.032;15.398;2024-01-10T11:56:09;13.27;;;7.77;;
12145;SDS011;6136;47.032;15.398;2024-01-10T11:58:52;12.60;;;8.07;;
12145;SDS011;6136;47.032;15.398;2024-01-10T12:01:20;15.43;;;7.77;;
12145;SDS011;6136;47.032;15.398;2024-01-10T12:03:50;17.37;;;8.77;;
12145;SDS011;6136;47.032;15.398;2024-01-10T12:06:39;12.73;;;8.20;;
12145;SDS011;6136;47.032;15.398;2024-01-10T12:09:08;15.40;;;7.83;;
12145;SDS011;6136;47.032;15.398;2024-01-10T12:11:39;12.37;;;7.93;;
12145;SDS011;6136;47.032;15.398;2024-01-10T12:14:08;17.13;;;8.03;;
12145;SDS011;6136;47.032;15.398;2024-01-10T12:16:36;12.13;;;8.07;;
12145;SDS011;6136;47.032;15.398;2024-01-10T12:19:05;12.97;;;7.63;;
12145;SDS011;6136;47.032;15.398;2024-01-10T12:21:33;13.70;;;8.50;;
12145;SDS011;6136;47.032;15.398;2024-01-10T12:24:03;10.53;;;6.77;;
12145;SDS011;6136;47.032;15.398;2024-01-10T12:26:33;12.17;;;7.03;;
12145;SDS011;6136;47.032;15.398;2024-01-10T12:29:02;12.13;;;7.30;;
12145;SDS011;6136;47.032;15.398;2024-01-10T12:31:33;10.60;;;6.63;;
12145;SDS011;6136;47.032;15.398;2024-01-10T12:34:01;9.43;;;6.70;;
12145;SDS011;6136;47.032;15.398;2024-01-10T12:36:33;13.60;;;7.67;;
12145;SDS011;6136;47.032;15.398;2024-01-10T12:39:02;13.03;;;7.63;;
12145;SDS011;6136;47.032;15.398;2024-01-10T12:41:30;13.07;;;7.93;;
12145;SDS011;6136;47.032;15.398;2024-01-10T12:44:00;12.67;;;7.80;;
12145;SDS011;6136;47.032;15.398;2024-01-10T12:46:30;11.73;;;6.87;;
12145;SDS011;6136;47.032;15.398;2024-01-10T12:48:59;10.80;;;7.27;;
12145;SDS011;6136;47.032;15.398;2024-01-10T12:51:28;11.67;;;7.93;;
12145;SDS011;6136;47.032;15.398;2024-01-10T12:53:57;11.73;;;7.37;;
12145;SDS011;6136;47.032;15.398;2024-01-10T12:56:26;13.73;;;7.40;;
12145;SDS011;6136;47.032;15.398;2024-01-10T12:58:54;14.67;;;7.53;;
12145;SDS011;6136;47.032;15.398;2024-01-10T13:01:24;12.13;;;7.00;;
12145;SDS011;6136;47.032;15.398;2024-01-10T13:03:52;13.73;;;7.13;;
12145;SDS011;6136;47.032;15.398;2024-01-10T13:06:21;15.60;;;6.67;;
12145;SDS011;6136;47.032;15.398;2024-01-10T13:08:49;12.57;;;6.77;;
12145;SDS011;6136;47.032;15.398;2024-01-10T13:11:17;12.77;;;8.60;;
12145;SDS011;6136;47.032;15.398;2024-01-10T13:13:47;10.80;;;6.60;;
12145;SDS011;6136;47.032;15.398;2024-01-10T13:16:15;9.80;;;6.67;;
12145;SDS011;6136;47.032;15.398;2024-01-10T13:18:45;10.30;;;6.63;;
12145;SDS011;6136;47.032;15.398;2024-01-10T13:21:13;8.90;;;6.00;;
12145;SDS011;6136;47.032;15.398;2024-01-10T13:23:41;10.73;;;5.63;;
12145;SDS011;6136;47.032;15.398;2024-01-10T13:26:09;10.33;;;5.97;;
12145;SDS011;6136;47.032;15.398;2024-01-10T13:28:38;8.47;;;6.43;;
12145;SDS011;6136;47.032;15.398;2024-01-10T13:31:07;9.33;;;6.03;;
12145;SDS011;6136;47.032;15.398;2024-01-10T13:33:36;9.83;;;6.03;;
12145;SDS011;6136;47.032;15.398;2024-01-10T13:36:14;9.83;;;6.37;;
12145;SDS011;6136;47.032;15.398;2024-01-10T13:38:42;9.17;;;5.97;;
12145;SDS011;6136;47.032;15.398;2024-01-10T13:41:10;10.60;;;6.17;;
12145;SDS011;6136;47.032;15.398;2024-01-10T13:43:38;11.27;;;6.40;;
12145;SDS011;6136;47.032;15.398;2024-01-10T13:46:07;9.50;;;6.00;;
12145;SDS011;6136;47.032;15.398;2024-01-10T13:48:35;10.53;;;5.53;;
12145;SDS011;6136;47.032;15.398;2024-01-10T13:51:04;9.73;;;6.30;;
12145;SDS011;6136;47.032;15.398;2024-01-10T13:53:33;9.40;;;6.40;;
12145;SDS011;6136;47.032;15.398;2024-01-10T13:56:03;15.10;;;6.10;;
12145;SDS011;6136;47.032;15.398;2024-01-10T13:58:31;9.10;;;6.23;;
12145;SDS011;6136;47.032;15.398;2024-01-10T14:00:59;12.67;;;6.50;;
12145;SDS011;6136;47.032;15.398;2024-01-10T14:03:27;12.60;;;7.00;;
12145;SDS011;6136;47.032;15.398;2024-01-10T14:05:59;8.17;;;6.70;;
12145;SDS011;6136;47.032;15.398;2024-01-10T14:08:27;9.33;;;6.60;;
12145;SDS011;6136;47.032;15.398;2024-01-10T14:10:57;9.07;;;7.30;;
12145;SDS011;6136;47.032;15.398;2024-01-10T14:13:25;10.43;;;7.20;;
12145;SDS011;6136;47.032;15.398;2024-01-10T14:15:53;11.27;;;7.00;;
12145;SDS011;6136;47.032;15.398;2024-01-10T14:18:21;11.53;;;6.80;;
12145;SDS011;6136;47.032;15.398;2024-01-10T14:20:50;12.03;;;7.20;;
12145;SDS011;6136;47.032;15.398;2024-01-10T14:23:18;13.73;;;7.73;;
12145;SDS011;6136;47.032;15.398;2024-01-10T14:25:47;13.00;;;7.97;;
12145;SDS011;6136;47.032;15.398;2024-01-10T14:28:16;14.13;;;7.60;;
12145;SDS011;6136;47.032;15.398;2024-01-10T14:30:44;16.20;;;8.83;;
12145;SDS011;6136;47.032;15.398;2024-01-10T14:33:12;15.47;;;8.17;;
12145;SDS011;6136;47.032;15.398;2024-01-10T14:35:41;12.17;;;7.70;;
12145;SDS011;6136;47.032;15.398;2024-01-10T14:38:09;14.03;;;8.27;;
12145;SDS011;6136;47.032;15.398;2024-01-10T14:40:37;13.57;;;8.57;;
12145;SDS011;6136;47.032;15.398;2024-01-10T14:43:05;12.17;;;7.47;;
12145;SDS011;6136;47.032;15.398;2024-01-10T14:45:35;14.27;;;8.13;;
12145;SDS011;6136;47.032;15.398;2024-01-10T14:48:04;12.07;;;7.60;;